Time;durP1;ratioP1;P1;durP2;ratioP2;P2;SDS_P1;SDS_P2;PMS_P1;PMS_P2;Temp;Humidity;BMP_temperature;BMP_pressure;BME280_temperature;BME280_humidity;BME280_pressure;Samples;Min_cycle;Max_cycle;Signal;HPM_P1;HPM_P2
2022/04/12 00:03:42;;;;;;;5.72;3.40;;;;;;;5.75;42.93;100246.41;7736258;32;39265;-74
2022/04/12 00:07:59;;;;;;;6.30;3.55;;;;;;;5.94;43.07;100246.38;7736051;32;39868;-74
2022/04/12 00:12:15;;;;;;;6.68;3.90;;;;;;;5.94;43.00;100235.56;7735961;32;37871;-74
2022/04/12 00:16:31;;;;;;;4.68;2.90;;;;;;;5.36;43.56;100250.44;7734169;32;37557;-75
2022/04/12 00:20:48;;;;;;;4.53;3.22;;;;;;;5.74;43.41;100244.75;7712513;32;39303;-74
2022/04/12 00:25:06;;;;;;;4.62;3.20;;;;;;;5.82;42.51;100243.63;7712813;32;40065;-74
2022/04/12 00:29:22;;;;;;;6.18;3.70;;;;;;;5.81;43.02;100241.97;7712708;32;38633;-74
2022/04/12 00:33:38;;;;;;;4.85;3.08;;;;;;;5.71;42.86;100233.56;7712711;32;37116;-76
2022/04/12 00:37:55;;;;;;;5.10;3.17;;;;;;;5.87;42.96;100230.22;7712684;32;40116;-75
2022/04/12 00:42:11;;;;;;;3.95;3.00;;;;;;;5.61;43.10;100229.53;7712699;32;39908;-74
2022/04/12 00:46:27;;;;;;;4.30;2.95;;;;;;;5.68;43.60;100220.53;7714511;32;38631;-75
2022/04/12 00:50:43;;;;;;;6.68;3.53;;;;;;;5.41;43.79;100242.47;7739518;32;36924;-75
2022/04/12 00:55:02;;;;;;;6.55;3.62;;;;;;;5.78;43.09;100224.31;7738154;32;39263;-75
2022/04/12 00:59:19;;;;;;;4.78;3.35;;;;;;;5.45;44.23;100228.28;7739314;32;40247;-75
2022/04/12 01:03:35;;;;;;;6.30;3.60;;;;;;;5.31;45.58;100225.97;7739157;32;37601;-75
2022/04/12 01:07:51;;;;;;;5.45;3.35;;;;;;;5.35;45.08;100227.19;7739235;32;36967;-76
2022/04/12 01:12:09;;;;;;;5.75;3.37;;;;;;;5.61;45.06;100216.00;7712693;32;39119;-75
2022/04/12 01:16:25;;;;;;;3.85;3.08;;;;;;;5.38;45.09;100226.69;7715201;32;41097;-74
2022/04/12 01:20:42;;;;;;;4.05;2.87;;;;;;;5.13;45.31;100224.09;7739065;32;38631;-74
2022/04/12 01:24:58;;;;;;;3.58;2.85;;;;;;;5.01;45.14;100216.72;7739090;32;37127;-75
2022/04/12 01:29:14;;;;;;;4.47;2.80;;;;;;;4.83;45.73;100219.41;7738009;32;40038;-74
2022/04/12 01:33:30;;;;;;;5.10;2.78;;;;;;;5.00;45.04;100214.25;7738949;32;40966;-75
2022/04/12 01:37:46;;;;;;;5.55;3.17;;;;;;;5.01;45.01;100213.22;7738812;32;38010;-75
2022/04/12 01:42:02;;;;;;;4.93;3.20;;;;;;;5.15;44.79;100220.09;7738821;32;37900;-74
2022/04/12 01:46:22;;;;;;;4.18;3.20;;;;;;;4.81;46.17;100216.09;7738352;32;39324;-74
2022/04/12 01:50:38;;;;;;;4.50;3.17;;;;;;;5.30;45.19;100218.91;7738588;32;40687;-76
2022/04/12 01:54:54;;;;;;;5.37;3.50;;;;;;;5.22;45.94;100222.75;7738425;32;38693;-76
2022/04/12 01:59:10;;;;;;;8.02;3.50;;;;;;;5.34;45.96;100214.69;7738545;32;37023;-75
2022/04/12 02:03:26;;;;;;;5.53;3.12;;;;;;;5.34;45.89;100220.09;7737171;32;40107;-76
2022/04/12 02:07:45;;;;;;;8.65;3.53;;;;;;;5.54;45.97;100219.87;7738419;32;40772;-76
2022/04/12 02:12:01;;;;;;;5.53;3.45;;;;;;;5.16;45.95;100224.47;7738405;32;37535;-74
2022/04/12 02:16:18;;;;;;;6.18;3.87;;;;;;;4.79;48.93;100227.13;7737835;32;36805;-74
2022/04/12 02:20:34;;;;;;;5.00;3.30;;;;;;;5.01;49.26;100221.31;7738322;32;40043;-74
2022/04/12 02:24:50;;;;;;;7.03;3.45;;;;;;;5.17;47.94;100218.00;7738236;32;39951;-75
2022/04/12 02:29:07;;;;;;;6.82;4.20;;;;;;;5.06;48.37;100219.59;7738180;32;38694;-75
2022/04/12 02:33:23;;;;;;;5.32;3.20;;;;;;;5.06;50.39;100224.16;7738117;32;37056;-75
2022/04/12 02:37:39;;;;;;;5.62;3.17;;;;;;;5.22;50.28;100222.75;7738154;32;39407;-75
2022/04/12 02:41:55;;;;;;;5.47;3.47;;;;;;;5.17;50.38;100226.09;7737582;32;40852;-75
2022/04/12 02:46:11;;;;;;;5.15;3.53;;;;;;;4.75;51.43;100217.84;7737729;32;37934;-75
2022/04/12 02:50:28;;;;;;;3.90;2.85;;;;;;;5.09;50.52;100223.72;7737953;32;37942;-74
2022/04/12 02:54:44;;;;;;;3.47;2.85;;;;;;;5.06;50.59;100219.59;7721605;32;40049;-75
2022/04/12 02:59:00;;;;;;;3.85;3.08;;;;;;;5.12;50.28;100225.12;7711016;32;40838;-76
2022/04/12 03:03:16;;;;;;;5.57;3.03;;;;;;;4.82;52.16;100224.00;7710934;32;37892;-75
2022/04/12 03:07:32;;;;;;;9.45;3.30;;;;;;;5.09;50.77;100229.12;7710893;32;37931;-75
2022/04/12 03:11:48;;;;;;;6.43;3.00;;;;;;;5.17;47.70;100231.50;7710745;32;39636;-74
2022/04/12 03:16:05;;;;;;;3.75;3.10;;;;;;;5.04;49.80;100226.28;7710362;32;40965;-75
2022/04/12 03:20:21;;;;;;;2.97;2.58;;;;;;;5.30;47.80;100229.75;7710616;32;38662;-74
2022/04/12 03:24:37;;;;;;;4.85;2.97;;;;;;;5.52;46.70;100227.37;7710622;32;36995;-75
2022/04/12 03:28:53;;;;;;;4.53;2.80;;;;;;;5.39;46.59;100228.38;7710572;32;40360;-76
2022/04/12 03:33:09;;;;;;;2.95;2.58;;;;;;;5.75;45.65;100229.38;7710234;32;41349;-75
2022/04/12 03:37:25;;;;;;;4.87;3.08;;;;;;;5.58;45.49;100227.28;7710299;32;37838;-75
2022/04/12 03:41:41;;;;;;;3.40;2.80;;;;;;;5.47;45.40;100225.34;7710265;32;37783;-73
2022/04/12 03:45:57;;;;;;;5.65;3.22;;;;;;;5.49;45.21;100230.53;7717318;32;39225;-74
2022/04/12 03:50:13;;;;;;;6.32;3.60;;;;;;;5.37;45.55;100230.47;7736732;32;40699;-74
2022/04/12 03:54:29;;;;;;;4.50;3.33;;;;;;;5.36;46.01;100240.44;7724052;32;38654;-74
2022/04/12 03:58:45;;;;;;;4.10;2.83;;;;;;;4.77;50.71;100250.03;7713212;32;37812;-74
2022/04/12 04:03:01;;;;;;;9.23;3.30;;;;;;;4.99;49.41;100239.63;7713245;32;39098;-74
2022/04/12 04:07:18;;;;;;;5.30;3.67;;;;;;;4.86;49.68;100256.78;7713029;32;40000;-74
2022/04/12 04:11:38;;;;;;;5.03;3.25;;;;;;;4.95;50.02;100250.06;7713006;32;37934;-75
2022/04/12 04:15:54;;;;;;;3.92;3.30;;;;;;;5.26;50.13;100257.22;7720193;32;37165;-76
2022/04/12 04:20:17;;;;;;;5.15;3.37;;;;;;;5.43;50.31;100251.19;7739764;32;40236;-75
2022/04/12 04:24:33;;;;;;;4.30;3.40;;;;;;;5.31;50.87;100258.41;7739725;32;41141;-76
2022/04/12 04:28:49;;;;;;;5.32;3.80;;;;;;;5.43;50.44;100264.72;7739676;32;37922;-75
2022/04/12 04:33:07;;;;;;;5.82;3.42;;;;;;;5.41;50.14;100261.41;7739799;32;36834;-74
2022/04/12 04:37:23;;;;;;;3.67;3.00;;;;;;;5.49;49.44;100266.50;7733839;32;40459;-73
2022/04/12 04:41:39;;;;;;;5.87;2.97;;;;;;;5.32;49.33;100270.87;7712652;32;39686;-74
2022/04/12 04:45:55;;;;;;;5.50;3.35;;;;;;;5.51;47.73;100269.81;7712461;32;38447;-75
2022/04/12 04:50:13;;;;;;;5.32;3.50;;;;;;;5.39;46.84;100266.22;7712450;32;37616;-75
2022/04/12 04:54:29;;;;;;;5.65;3.58;;;;;;;5.12;47.99;100276.50;7712524;32;39874;-74
2022/04/12 04:58:45;;;;;;;4.70;3.55;;;;;;;5.15;51.02;100279.56;7712456;32;39692;-75
2022/04/12 05:03:02;;;;;;;8.25;3.47;;;;;;;5.07;51.03;100285.25;7712106;32;38584;-75
2022/04/12 05:07:25;;;;;;;6.10;3.62;;;;;;;5.14;51.08;100291.44;7712362;32;36959;-75
2022/04/12 05:11:41;;;;;;;5.57;3.37;;;;;;;5.52;51.46;100285.00;7712367;32;39396;-75
2022/04/12 05:15:57;;;;;;;11.52;3.95;;;;;;;5.77;50.28;100287.59;7711941;32;39935;-75
2022/04/12 05:20:13;;;;;;;10.02;3.95;;;;;;;5.70;50.32;100291.44;7712049;32;37974;-75
2022/04/12 05:24:29;;;;;;;19.35;3.83;;;;;;;5.54;50.51;100295.59;7712207;32;37342;-75
2022/04/12 05:28:45;;;;;;;6.25;3.60;;;;;;;5.82;49.05;100301.25;7685541;32;40116;-75
2022/04/12 05:33:01;;;;;;;11.00;3.55;;;;;;;5.78;49.08;100307.38;7685536;32;39907;-75
2022/04/12 05:37:18;;;;;;;7.00;3.58;;;;;;;6.18;48.25;100301.44;7734048;32;37809;-74
2022/04/12 05:41:34;;;;;;;4.47;3.30;;;;;;;6.20;48.44;100299.34;7738738;32;37095;-74
2022/04/12 05:45:51;;;;;;;5.40;3.40;;;;;;;6.07;46.45;100300.38;7738427;32;39415;-75
2022/04/12 05:50:07;;;;;;;5.90;3.67;;;;;;;5.93;50.20;100305.09;7738774;32;40725;-75
2022/04/12 05:54:24;;;;;;;5.25;3.40;;;;;;;6.27;48.75;100310.88;7738485;32;37796;-74
2022/04/12 05:58:40;;;;;;;4.20;3.60;;;;;;;6.52;48.40;100318.00;7738539;32;37180;-72
2022/04/12 06:02:57;;;;;;;7.97;4.05;;;;;;;6.84;50.28;100315.03;7719850;32;40218;-76
2022/04/12 06:07:13;;;;;;;7.03;3.72;;;;;;;7.22;44.82;100311.03;7711653;32;39957;-74
2022/04/12 06:11:29;;;;;;;12.18;4.18;;;;;;;7.46;45.38;100326.19;7711648;32;38822;-73
2022/04/12 06:15:45;;;;;;;10.15;3.87;;;;;;;7.61;44.83;100319.47;7710621;32;37883;-75
2022/04/12 06:20:07;;;;;;;7.65;3.83;;;;;;;7.97;43.94;100317.47;7711514;32;39398;-74
2022/04/12 06:24:23;;;;;;;10.05;3.58;;;;;;;8.19;43.83;100314.91;7730173;32;40029;-73
2022/04/12 06:28:39;;;;;;;8.40;3.53;;;;;;;8.53;49.30;100312.28;7723920;32;38002;-76
2022/04/12 06:32:56;;;;;;;8.23;3.72;;;;;;;8.38;45.53;100321.78;7708160;32;37040;-70
2022/04/12 06:37:12;;;;;;;11.82;4.00;;;;;;;8.37;45.18;100322.03;7734003;32;39505;-76
2022/04/12 06:41:28;;;;;;;6.80;3.55;;;;;;;8.61;45.17;100323.56;7736673;32;40016;-76
2022/04/12 06:45:44;;;;;;;5.43;2.92;;;;;;;9.44;37.60;100319.41;7736783;32;37956;-76
2022/04/12 06:50:00;;;;;;;12.43;3.10;;;;;;;9.19;35.22;100321.50;7737928;32;38138;-76
2022/04/12 06:54:16;;;;;;;5.32;2.97;;;;;;;9.83;34.09;100327.50;7737838;32;40132;-77
2022/04/12 06:58:33;;;;;;;6.05;3.17;;;;;;;10.31;34.63;100328.59;7737928;32;39963;-77
2022/04/12 07:02:49;;;;;;;6.53;3.50;;;;;;;10.62;34.40;100323.47;7737657;32;39135;-76
2022/04/12 07:07:05;;;;;;;7.75;3.12;;;;;;;10.69;33.39;100324.91;7737722;32;36832;-75
2022/04/12 07:11:21;;;;;;;6.60;3.30;;;;;;;11.10;33.58;100321.66;7737740;32;39086;-75
2022/04/12 07:15:37;;;;;;;4.15;3.03;;;;;;;11.28;33.55;100320.44;7737075;32;39773;-75
2022/04/12 07:19:53;;;;;;;6.20;3.25;;;;;;;11.45;32.61;100323.81;7737411;32;37682;-73
2022/04/12 07:24:09;;;;;;;4.95;2.80;;;;;;;11.56;32.52;100327.41;7727079;32;37208;-76
2022/04/12 07:28:25;;;;;;;5.03;2.83;;;;;;;11.85;31.61;100324.28;7710346;32;38722;-76
2022/04/12 07:32:41;;;;;;;3.62;2.50;;;;;;;12.16;31.09;100329.88;7725591;32;39881;-75
2022/04/12 07:36:58;;;;;;;3.95;2.30;;;;;;;12.22;30.45;100331.53;7736986;32;38659;-76
2022/04/12 07:41:13;;;;;;;4.22;2.28;;;;;;;12.35;29.67;100332.94;7737022;32;37805;-76
2022/04/12 07:45:29;;;;;;;28.17;3.55;;;;;;;12.56;30.25;100333.78;7733111;32;39343;-77
2022/04/12 07:49:46;;;;;;;5.28;2.47;;;;;;;12.98;29.82;100332.69;7733477;32;40761;-76
2022/04/12 07:54:03;;;;;;;5.93;2.28;;;;;;;13.51;29.41;100321.41;7733446;32;37506;-71
2022/04/12 07:58:19;;;;;;;4.37;2.25;;;;;;;13.51;32.30;100332.37;7735478;32;37312;-77
2022/04/12 08:02:35;;;;;;;4.15;2.20;;;;;;;14.07;29.24;100328.56;7736111;32;40896;-76
2022/04/12 08:06:51;;;;;;;4.57;2.37;;;;;;;14.03;28.43;100327.50;7736046;32;40046;-77
2022/04/12 08:11:08;;;;;;;3.58;2.22;;;;;;;14.10;27.75;100328.03;7731817;32;129193;-76
2022/04/12 08:15:26;;;;;;;3.25;2.12;;;;;;;14.35;26.62;100328.97;7735623;32;37378;-77
2022/04/12 08:19:42;;;;;;;2.83;2.28;;;;;;;14.18;27.72;100327.44;7735731;32;39435;-77
2022/04/12 08:23:58;;;;;;;3.58;2.00;;;;;;;14.52;26.02;100337.66;7735628;32;40758;-76
2022/04/12 08:28:14;;;;;;;4.35;2.12;;;;;;;14.42;25.47;100337.72;7735353;32;38058;-76
2022/04/12 08:32:30;;;;;;;7.78;1.95;;;;;;;14.81;24.26;100334.16;7735490;32;37954;-72
2022/04/12 08:36:46;;;;;;;2.65;1.92;;;;;;;14.84;23.73;100342.66;7736109;32;38784;-76
2022/04/12 08:41:03;;;;;;;2.53;1.65;;;;;;;14.76;25.22;100340.53;7739431;32;39894;-76
2022/04/12 08:45:19;;;;;;;4.25;2.03;;;;;;;14.69;23.37;100337.28;7739404;32;38196;-75
2022/04/12 08:49:38;;;;;;;4.45;2.00;;;;;;;14.96;23.02;100335.97;7739382;32;37218;-76
2022/04/12 08:53:56;;;;;;;4.25;1.75;;;;;;;15.33;22.72;100327.12;7738418;32;38569;-78
2022/04/12 08:58:12;;;;;;;6.75;2.10;;;;;;;15.49;23.82;100324.22;7738421;32;40224;-77
2022/04/12 09:02:28;;;;;;;5.18;2.10;;;;;;;15.69;21.81;100326.69;7739205;32;38123;-77
2022/04/12 09:06:51;;;;;;;3.35;1.98;;;;;;;15.95;21.44;100323.66;7739186;32;37155;-77
2022/04/12 09:11:08;;;;;;;3.58;1.92;;;;;;;16.36;21.41;100320.38;7737391;32;39416;-75
2022/04/12 09:15:25;;;;;;;6.03;1.62;;;;;;;16.51;21.73;100320.12;7711961;32;40813;-77
2022/04/12 09:19:55;;;;;;;3.37;1.90;;;;;;;16.52;20.17;100318.19;7712147;32;37934;-77
2022/04/12 09:24:20;;;;;;;3.47;1.92;;;;;;;16.87;19.81;100311.34;7712196;32;37006;-77
2022/04/12 09:28:41;;;;;;;10.43;2.47;;;;;;;16.49;21.34;100325.13;7727548;32;40172;-75
2022/04/12 09:33:09;;;;;;;3.92;2.10;;;;;;;16.74;22.83;100298.31;7738666;32;39260;-78
2022/04/12 09:37:30;;;;;;;3.15;2.12;;;;;;;16.83;20.96;100295.69;7724863;32;37980;-79
2022/04/12 09:41:49;;;;;;;5.10;1.95;;;;;;;16.54;21.63;100296.72;7711914;32;38883;-77
2022/04/12 09:46:13;;;;;;;2.95;1.95;;;;;;;16.58;20.49;100294.19;7711913;32;39286;-77
2022/04/12 09:50:31;;;;;;;3.67;2.12;;;;;;;17.02;20.44;100277.22;7711229;32;40834;-79
2022/04/12 09:54:47;;;;;;;3.85;2.08;;;;;;;17.08;20.33;100283.44;7711787;32;37824;-78
2022/04/12 09:59:06;;;;;;;4.50;2.10;;;;;;;17.69;20.14;100278.66;7714894;32;37598;-79
2022/04/12 10:03:24;;;;;;;14.25;3.03;;;;;;;17.61;18.81;100276.66;7711823;32;39605;-77
2022/04/12 10:07:40;;;;;;;2.67;2.00;;;;;;;17.54;21.86;100279.81;7711558;32;41557;-77
2022/04/12 10:12:00;;;;;;;3.08;1.77;;;;;;;17.65;19.24;100274.91;7710473;32;38711;-78
2022/04/12 10:16:18;;;;;;;4.15;2.37;;;;;;;18.19;20.76;100261.34;7710269;32;36819;-78
2022/04/12 10:20:35;;;;;;;4.37;1.95;;;;;;;18.14;20.30;100258.69;7707776;32;39530;-78
2022/04/12 10:24:51;;;;;;;5.05;2.60;;;;;;;18.86;19.94;100248.69;7684145;32;39648;-78
2022/04/12 10:29:07;;;;;;;3.90;2.40;;;;;;;18.52;18.34;100242.62;7705759;32;37761;-78
2022/04/12 10:33:28;;;;;;;3.45;2.15;;;;;;;19.21;17.94;100237.81;7712006;32;37918;-78
2022/04/12 10:37:45;;;;;;;4.53;2.20;;;;;;;19.49;18.35;100224.59;7732092;32;40196;-78
2022/04/12 10:42:25;;;;;;;3.90;2.40;;;;;;;19.74;17.93;100223.03;7723873;32;39971;-80
2022/04/12 10:46:50;;;;;;;5.97;2.50;;;;;;;19.70;17.70;100216.50;7711029;32;37994;-76
2022/04/12 10:51:07;;;;;;;4.55;2.40;;;;;;;19.81;16.65;100212.28;7711108;32;37931;-78
2022/04/12 10:55:27;;;;;;;6.07;2.50;;;;;;;20.43;18.86;100204.78;7711158;32;39320;-76
2022/04/12 10:59:57;;;;;;;4.70;2.25;;;;;;;19.84;17.37;100206.13;7710657;32;40050;-77
2022/04/12 11:04:25;;;;;;;4.50;2.55;;;;;;;20.19;18.95;100200.59;7710972;32;37904;-76
2022/04/12 11:08:43;;;;;;;11.15;2.50;;;;;;;20.94;16.49;100199.50;7709918;32;37279;-78
2022/04/12 11:13:10;;;;;;;5.68;2.58;;;;;;;20.81;17.71;100190.22;7710676;32;40217;-77
2022/04/12 11:17:29;;;;;;;7.30;2.50;;;;;;;20.98;17.24;100187.41;7735086;32;39987;-77
2022/04/12 11:21:57;;;;;;;5.78;2.55;;;;;;;21.58;17.59;100181.91;7715910;32;37948;-74
2022/04/12 11:26:29;;;;;;;3.90;2.15;;;;;;;21.33;17.29;100176.13;7710437;32;38251;-73
2022/04/12 11:30:58;;;;;;;6.82;2.72;;;;;;;21.81;16.24;100170.47;7710295;32;40057;-73
2022/04/12 11:35:15;;;;;;;7.62;2.85;;;;;;;21.75;16.49;100176.22;7708981;32;40834;-72
2022/04/12 11:39:32;;;;;;;3.75;2.20;;;;;;;22.36;17.79;100166.59;7708850;32;39023;-72
2022/04/12 11:43:57;;;;;;;4.50;2.37;;;;;;;22.33;17.35;100161.72;7710085;32;36923;-72
2022/04/12 11:48:13;;;;;;;4.65;2.65;;;;;;;22.89;16.17;100155.72;7709930;32;39988;-72
2022/04/12 11:52:31;;;;;;;6.87;2.83;;;;;;;23.35;17.42;100150.88;7708773;32;39726;-72
2022/04/12 11:56:51;;;;;;;3.58;2.42;;;;;;;23.47;15.96;100147.22;7708355;32;37963;-71
2022/04/12 12:01:08;;;;;;;4.32;2.65;;;;;;;23.72;16.51;100153.56;7708493;32;37048;-71
2022/04/12 12:05:24;;;;;;;4.25;2.70;;;;;;;24.24;15.45;100151.91;7708326;32;40205;-71
2022/04/12 12:09:50;;;;;;;8.38;2.65;;;;;;;24.65;14.56;100149.84;7709215;32;40909;-72
2022/04/12 12:14:10;;;;;;;5.10;2.15;;;;;;;24.79;15.68;100141.03;7710120;32;38672;-73
2022/04/12 12:18:26;;;;;;;6.03;3.47;;;;;;;24.72;14.08;100141.66;7711540;32;37821;-72
2022/04/12 12:22:44;;;;;;;6.30;3.30;;;;;;;24.69;14.56;100139.59;7711776;32;39388;-70
2022/04/12 12:27:00;;;;;;;5.90;2.95;;;;;;;24.12;13.40;100126.91;7710963;32;38896;-71
2022/04/12 12:31:16;;;;;;;6.15;2.33;;;;;;;24.10;14.67;100126.44;7712101;32;38168;-71
2022/04/12 12:35:33;;;;;;;7.75;2.90;;;;;;;24.64;14.39;100119.53;7710943;32;37098;-72
2022/04/12 12:39:49;;;;;;;6.37;3.20;;;;;;;24.79;14.01;100126.28;7712436;32;39994;-71
2022/04/12 12:44:07;;;;;;;6.07;2.72;;;;;;;23.88;13.92;100116.66;7712205;32;39743;-70
2022/04/12 12:48:23;;;;;;;5.87;2.62;;;;;;;24.27;14.26;100116.97;7712020;32;38668;-71
2022/04/12 12:52:45;;;;;;;7.80;2.83;;;;;;;24.25;13.52;100114.53;7710974;32;36841;-72
2022/04/12 12:57:02;;;;;;;4.77;2.63;;;;;;;23.74;15.60;100111.47;7711989;32;39838;-71
2022/04/12 13:01:18;;;;;;;8.95;2.70;;;;;;;23.74;13.87;100100.34;7712137;32;39976;-71
2022/04/12 13:05:37;;;;;;;6.43;2.70;;;;;;;23.61;14.92;100103.16;7712165;32;38225;-72
2022/04/12 13:09:53;;;;;;;15.52;3.50;;;;;;;23.37;14.76;100098.47;7711569;32;37050;-71
2022/04/12 13:14:09;;;;;;;6.80;3.25;;;;;;;22.79;14.95;100095.81;7711876;32;40070;-71
2022/04/12 13:18:25;;;;;;;7.75;3.08;;;;;;;22.38;15.53;100105.94;7711325;32;40850;-72
2022/04/12 13:22:43;;;;;;;8.25;2.95;;;;;;;23.74;14.25;100078.88;7711617;32;38645;-72
2022/04/12 13:26:59;;;;;;;7.25;2.72;;;;;;;23.62;16.73;100092.84;7711772;32;37122;-72
2022/04/12 13:31:15;;;;;;;8.75;2.60;;;;;;;23.02;14.52;100081.44;7711579;32;39347;-72
2022/04/12 13:35:32;;;;;;;6.35;3.50;;;;;;;22.43;15.38;100094.63;7711372;32;40917;-72
2022/04/12 13:39:51;;;;;;;6.22;3.30;;;;;;;22.75;14.86;100078.22;7711475;32;38906;-73
2022/04/12 13:44:08;;;;;;;5.37;2.95;;;;;;;23.21;16.10;100076.09;7710497;32;36895;-71
2022/04/12 13:48:44;;;;;;;9.23;4.25;;;;;;;24.11;15.15;100069.56;7711101;32;39617;-72
2022/04/12 13:53:00;;;;;;;8.10;3.58;;;;;;;23.15;13.96;100074.75;7711393;32;39873;-72
2022/04/12 13:57:16;;;;;;;7.30;3.25;;;;;;;23.14;15.06;100073.12;7711397;32;37888;-71
2022/04/12 14:01:32;;;;;;;7.90;3.47;;;;;;;23.60;14.73;100070.91;7711035;32;37114;-71
2022/04/12 14:05:50;;;;;;;7.43;3.33;;;;;;;23.38;14.67;100054.75;7711074;32;39166;-72
2022/04/12 14:10:06;;;;;;;8.68;3.62;;;;;;;22.96;15.17;100060.63;7711059;32;39878;-72
2022/04/12 14:14:22;;;;;;;8.07;3.53;;;;;;;23.22;14.62;100058.28;7710795;32;38062;-72
2022/04/12 14:18:39;;;;;;;7.62;3.03;;;;;;;21.76;15.39;100066.03;7710927;32;38447;-72
2022/04/12 14:22:55;;;;;;;8.77;3.50;;;;;;;21.81;15.68;100062.25;7711226;32;38969;-72
2022/04/12 14:27:13;;;;;;;5.07;2.83;;;;;;;22.99;14.68;100048.78;7711113;32;39701;-73
2022/04/12 14:31:29;;;;;;;7.32;3.20;;;;;;;23.33;14.92;100046.66;7710924;32;38702;-72
2022/04/12 14:35:45;;;;;;;5.93;2.83;;;;;;;23.54;14.62;100041.75;7710359;32;36767;-73
2022/04/12 14:40:01;;;;;;;4.95;3.00;;;;;;;23.41;13.51;100049.31;7710871;32;39354;-72
2022/04/12 14:44:17;;;;;;;6.65;2.67;;;;;;;23.12;13.55;100053.19;7710893;32;39621;-72
2022/04/12 14:48:33;;;;;;;7.50;3.20;;;;;;;22.46;14.92;100055.03;7711095;32;38748;-72
2022/04/12 14:52:49;;;;;;;11.32;3.95;;;;;;;23.61;13.69;100044.72;7710450;32;37105;-72
2022/04/12 14:57:06;;;;;;;6.90;3.35;;;;;;;23.70;13.52;100049.31;7710542;32;39124;-73
2022/04/12 15:01:22;;;;;;;7.32;3.15;;;;;;;22.72;15.62;100053.91;7710542;32;40278;-72
2022/04/12 15:05:38;;;;;;;6.68;3.20;;;;;;;22.10;15.03;100051.00;7710064;32;38027;-72
2022/04/12 15:09:54;;;;;;;8.23;3.15;;;;;;;22.56;14.96;100044.63;7710262;32;37866;-72
2022/04/12 15:14:10;;;;;;;10.27;3.53;;;;;;;23.02;15.46;100042.53;7710233;32;39384;-72
2022/04/12 15:18:26;;;;;;;7.18;2.97;;;;;;;22.00;15.08;100057.00;7710144;32;41321;-72
2022/04/12 15:22:42;;;;;;;8.98;2.83;;;;;;;21.52;15.21;100047.31;7709605;32;38000;-72
2022/04/12 15:26:58;;;;;;;5.95;2.80;;;;;;;21.69;14.78;100060.25;7709742;32;38109;-72
2022/04/12 15:31:14;;;;;;;7.35;3.40;;;;;;;21.37;15.72;100057.87;7710077;32;39120;-72
2022/04/12 15:35:30;;;;;;;6.43;3.10;;;;;;;20.66;16.16;100055.03;7710143;32;40067;-70
2022/04/12 15:39:46;;;;;;;9.70;3.17;;;;;;;20.92;16.41;100054.91;7709050;32;38039;-70
2022/04/12 15:44:02;;;;;;;4.37;2.60;;;;;;;21.28;15.80;100057.09;7710135;32;37874;-70
2022/04/12 15:48:18;;;;;;;10.18;2.85;;;;;;;21.30;16.82;100060.38;7711404;32;40207;-81
2022/04/12 15:52:34;;;;;;;8.38;3.62;;;;;;;21.31;17.44;100061.97;7713220;32;39996;-71
2022/04/12 15:56:51;;;;;;;5.90;3.10;;;;;;;22.10;15.52;100069.66;7713136;32;38537;-71
2022/04/12 16:01:07;;;;;;;5.87;3.37;;;;;;;21.22;16.86;100055.69;7707122;32;37636;-71
2022/04/12 16:05:23;;;;;;;8.85;3.42;;;;;;;21.12;16.94;100053.31;7712908;32;39926;-71
2022/04/12 16:09:42;;;;;;;7.28;3.37;;;;;;;20.51;16.68;100061.94;7712085;32;40304;-71
2022/04/12 16:13:58;;;;;;;9.98;2.62;;;;;;;20.15;17.05;100055.69;7712409;32;37906;-70
2022/04/12 16:18:14;;;;;;;6.07;2.97;;;;;;;20.04;17.10;100057.16;7713879;32;37107;-71
2022/04/12 16:22:30;;;;;;;4.70;2.75;;;;;;;19.63;17.27;100058.53;7712022;32;40091;-70
2022/04/12 16:26:47;;;;;;;7.60;3.22;;;;;;;20.10;17.40;100064.16;7712619;32;39883;-71
2022/04/12 16:31:04;;;;;;;10.88;4.65;;;;;;;20.17;17.70;100064.47;7711942;32;38770;-71
2022/04/12 16:35:22;;;;;;;11.18;4.65;;;;;;;19.80;18.57;100066.84;7712753;32;37144;-70
2022/04/12 16:39:38;;;;;;;7.65;3.92;;;;;;;19.82;18.30;100072.84;7712220;32;39283;-71
2022/04/12 16:43:54;;;;;;;15.60;4.00;;;;;;;19.22;18.15;100071.66;7711845;32;40727;-71
2022/04/12 16:48:10;;;;;;;6.53;3.40;;;;;;;19.11;19.26;100071.16;7712330;32;37978;-71
2022/04/12 16:52:26;;;;;;;10.05;4.30;;;;;;;19.16;18.56;100072.13;7711771;32;38094;-70
2022/04/12 16:56:42;;;;;;;9.15;4.30;;;;;;;19.47;18.66;100075.59;7712626;32;39408;-71
2022/04/12 17:00:58;;;;;;;12.40;4.68;;;;;;;19.42;20.01;100073.00;7711277;32;40015;-71
2022/04/12 17:05:15;;;;;;;8.43;4.43;;;;;;;19.40;21.55;100080.78;7712319;32;38798;-70
2022/04/12 17:09:34;;;;;;;9.05;4.53;;;;;;;19.07;21.81;100078.44;7710849;32;37912;-71
2022/04/12 17:13:50;;;;;;;17.33;4.90;;;;;;;18.86;22.19;100082.97;7711656;32;40080;-71
2022/04/12 17:18:06;;;;;;;9.20;4.97;;;;;;;18.78;23.20;100073.47;7704352;32;40709;-71
2022/04/12 17:22:22;;;;;;;11.12;4.28;;;;;;;18.83;22.54;100069.78;7711329;32;37894;-71
2022/04/12 17:26:39;;;;;;;13.15;4.22;;;;;;;18.73;21.71;100074.44;7712116;32;37116;-70
2022/04/12 17:30:55;;;;;;;10.13;4.70;;;;;;;17.90;22.99;100080.53;7711674;32;39187;-70
2022/04/12 17:35:11;;;;;;;12.88;6.05;;;;;;;17.97;22.43;100089.16;7711165;32;40709;-70
2022/04/12 17:39:30;;;;;;;8.65;4.45;;;;;;;17.30;23.98;100094.56;7711757;32;37956;-70
2022/04/12 17:43:48;;;;;;;8.65;4.65;;;;;;;17.26;23.84;100092.44;7711107;32;37959;-71
2022/04/12 17:48:05;;;;;;;13.35;4.72;;;;;;;16.80;25.63;100096.12;7712308;32;40116;-71
2022/04/12 17:52:32;;;;;;;13.88;4.53;;;;;;;16.85;25.15;100097.97;7719302;32;39671;-70
2022/04/12 17:56:49;;;;;;;19.12;5.60;;;;;;;16.72;25.09;100102.34;7711294;32;37964;-70
2022/04/12 18:01:06;;;;;;;10.88;5.22;;;;;;;16.56;25.99;100098.22;7711169;32;37827;-70
2022/04/12 18:05:25;;;;;;;10.98;5.00;;;;;;;16.09;26.84;100112.84;7710355;32;39460;-70
2022/04/12 18:09:42;;;;;;;10.15;4.50;;;;;;;16.11;27.47;100113.34;7709263;32;39723;-69
2022/04/12 18:14:04;;;;;;;10.40;4.37;;;;;;;15.81;28.32;100113.84;7710133;32;36891;-70
2022/04/12 18:18:20;;;;;;;8.82;4.22;;;;;;;15.82;27.82;100120.97;7711238;32;38232;-70
2022/04/12 18:22:38;;;;;;;10.73;3.92;;;;;;;15.58;28.45;100130.09;7711177;32;39312;-70
2022/04/12 18:26:54;;;;;;;7.07;4.07;;;;;;;15.50;28.57;100128.81;7711131;32;41596;-70
2022/04/12 18:31:10;;;;;;;13.62;5.40;;;;;;;14.97;30.30;100149.00;7711182;32;38092;-70
2022/04/12 18:35:30;;;;;;;12.88;4.95;;;;;;;14.90;30.73;100144.97;7711072;32;37301;-69
2022/04/12 18:39:46;;;;;;;10.25;5.12;;;;;;;14.84;30.62;100150.50;7710151;32;40117;-70
2022/04/12 18:44:06;;;;;;;12.35;4.93;;;;;;;15.14;30.88;100153.19;7726624;32;40153;-69
2022/04/12 18:48:22;;;;;;;12.85;4.40;;;;;;;14.43;32.84;100152.81;7729910;32;38326;-69
2022/04/12 18:52:38;;;;;;;12.43;5.28;;;;;;;14.79;31.76;100152.50;7708433;32;37559;-69
2022/04/12 18:56:54;;;;;;;16.83;6.22;;;;;;;14.40;32.17;100161.63;7710086;32;39304;-69
2022/04/12 19:01:10;;;;;;;13.13;6.70;;;;;;;14.24;32.60;100174.66;7710668;32;39888;-70
2022/04/12 19:05:26;;;;;;;8.75;4.22;;;;;;;14.07;33.02;100169.56;7710780;32;37950;-69
2022/04/12 19:09:42;;;;;;;8.73;4.22;;;;;;;14.13;33.34;100179.41;7710726;32;37843;-69
2022/04/12 19:13:58;;;;;;;8.57;4.15;;;;;;;14.03;32.40;100179.47;7719782;32;39328;-69
2022/04/12 19:18:15;;;;;;;12.50;4.20;;;;;;;13.82;31.52;100176.06;7710090;32;40725;-69
2022/04/12 19:22:31;;;;;;;10.57;3.83;;;;;;;13.67;31.76;100182.44;7710092;32;38023;-69
2022/04/12 19:26:50;;;;;;;9.00;3.50;;;;;;;13.54;31.21;100181.16;7710537;32;37002;-69
2022/04/12 19:31:06;;;;;;;9.68;3.92;;;;;;;13.58;31.10;100189.63;7710492;32;39515;-69
2022/04/12 19:35:22;;;;;;;6.82;3.75;;;;;;;13.51;31.29;100196.22;7710470;32;40994;-68
2022/04/12 19:39:41;;;;;;;9.38;4.30;;;;;;;13.42;31.92;100186.97;7708751;32;37989;-69
2022/04/12 19:43:57;;;;;;;6.90;3.80;;;;;;;13.25;31.97;100187.28;7710313;32;38400;-69
2022/04/12 19:48:14;;;;;;;10.77;4.75;;;;;;;13.25;31.67;100194.69;7710093;32;39272;-69
2022/04/12 19:52:30;;;;;;;8.77;4.03;;;;;;;13.17;31.70;100196.06;7709921;32;40062;-68
2022/04/12 19:56:46;;;;;;;10.05;4.12;;;;;;;13.01;32.21;100191.75;7709780;32;37980;-69
2022/04/12 20:01:03;;;;;;;10.18;3.60;;;;;;;12.74;33.25;100199.19;7709649;32;37149;-69